createdAt,value
2018-11-22T08:59:53.078Z,30.945
2018-11-22T09:00:09.810Z,32.841
2018-11-22T09:00:26.547Z,34.161
2018-11-22T09:00:43.282Z,31.879
2018-11-22T09:01:00.026Z,32.42
2018-11-22T09:01:16.785Z,31.997
2018-11-22T09:01:33.481Z,33.725
2018-11-22T09:01:50.261Z,31.86
2018-11-22T09:02:06.957Z,30.993
2018-11-22T09:02:23.648Z,31.57
2018-11-22T09:02:45.792Z,31.525
2018-11-22T09:03:02.481Z,30.993
2018-11-22T09:03:19.171Z,31.038
2018-11-22T09:03:35.858Z,30.794
2018-11-22T09:03:52.524Z,31.036
2018-11-22T09:04:09.196Z,30.747
2018-11-22T09:04:41.959Z,31.152
2018-11-22T09:04:58.651Z,30.888
2018-11-22T09:05:15.346Z,30.729
2018-11-22T09:05:32.013Z,30.67
2018-11-22T09:05:48.669Z,30.754
2018-11-22T09:06:05.329Z,30.895
2018-11-22T09:06:22.034Z,30.995
2018-11-22T09:06:38.696Z,31.085
2018-11-22T09:06:55.390Z,31.153
2018-11-22T09:07:12.129Z,31.865
2018-11-22T09:07:28.822Z,31.501
2018-11-22T09:07:45.520Z,31.612
2018-11-22T09:08:02.324Z,31.271
2018-11-22T09:08:19.010Z,31.583
2018-11-22T09:08:35.706Z,31.517
2018-11-22T09:08:52.397Z,31.551
2018-11-22T09:09:09.041Z,31.407
2018-11-22T09:09:25.705Z,32.303
2018-11-22T09:09:42.375Z,31.63
2018-11-22T09:10:02.968Z,31.333
2018-11-22T09:10:19.649Z,31.178
2018-11-22T09:10:36.343Z,31.277
2018-11-22T09:10:53.001Z,31.276
2018-11-22T09:11:09.671Z,34.022
2018-11-22T09:11:26.311Z,31.6
2018-11-22T09:11:42.980Z,31.401
2018-11-22T09:11:59.637Z,31.966
2018-11-22T09:12:16.279Z,31.536
2018-11-22T09:12:32.933Z,31.313
2018-11-22T09:12:49.600Z,31.691
2018-11-22T09:13:06.282Z,31.691
2018-11-22T09:13:22.963Z,31.227
2018-11-22T09:13:39.662Z,31.111
2018-11-22T09:13:56.327Z,31.933
2018-11-22T09:14:12.964Z,31.159
2018-11-22T09:14:29.631Z,31.126
2018-11-22T09:14:46.294Z,30.937
2018-11-22T09:15:03.042Z,30.911
2018-11-22T09:15:19.722Z,31.077
2018-11-22T09:15:36.425Z,30.933
2018-11-22T09:15:53.095Z,31.154
2018-11-22T09:16:09.742Z,31.457
2018-11-22T09:16:26.431Z,31.603
2018-11-22T09:16:43.086Z,30.804
2018-11-22T09:16:59.794Z,30.892
2018-11-22T09:17:16.591Z,30.815
2018-11-22T09:17:33.273Z,30.804
2018-11-22T09:17:49.942Z,31.513
2018-11-22T09:18:06.594Z,31.514
2018-11-22T09:18:23.329Z,30.927
2018-11-22T09:18:39.986Z,32.577
2018-11-22T09:18:56.626Z,31.052
2018-11-22T09:19:13.271Z,30.798
2018-11-22T09:19:29.963Z,30.832
2018-11-22T09:19:46.604Z,30.712
2018-11-22T09:20:03.283Z,31.376
2018-11-22T09:20:20.002Z,30.856
2018-11-22T09:20:36.657Z,30.857
2018-11-22T09:20:53.320Z,30.703
2018-11-22T09:21:09.977Z,31.556
2018-11-22T09:21:26.636Z,30.87
2018-11-22T09:21:43.299Z,30.849
2018-11-22T09:21:59.975Z,30.673
2018-11-22T09:22:16.631Z,30.714
2018-11-22T09:22:33.311Z,30.629
2018-11-22T09:22:50.030Z,30.488
2018-11-22T09:23:06.669Z,30.491
2018-11-22T09:23:23.317Z,30.64
2018-11-22T09:23:39.976Z,30.723
2018-11-22T09:23:56.665Z,30.428
2018-11-22T09:24:13.340Z,30.523
2018-11-22T09:24:30.019Z,30.185
2018-11-22T09:24:46.658Z,30
2018-11-22T09:25:03.290Z,29.912
2018-11-22T09:25:19.951Z,29.83
2018-11-22T09:25:36.640Z,29.858
2018-11-22T09:25:53.361Z,29.696
2018-11-22T09:26:10.083Z,29.559
2018-11-22T09:26:26.793Z,29.354
2018-11-22T09:26:43.480Z,29.394
2018-11-22T09:27:00.135Z,31.409
2018-11-22T09:27:16.816Z,29.158
2018-11-22T09:27:33.511Z,28.896
2018-11-22T09:27:50.161Z,28.931
2018-11-22T09:28:06.858Z,28.812
2018-11-22T09:28:23.503Z,28.723
2018-11-22T09:28:40.183Z,28.669
2018-11-22T09:28:56.872Z,28.701
2018-11-22T09:29:13.551Z,28.637
2018-11-22T09:29:30.208Z,28.771
2018-11-22T09:29:46.872Z,28.703
2018-11-22T09:30:03.556Z,29.095
2018-11-22T09:30:20.247Z,29.274
2018-11-22T09:30:36.919Z,29.264
2018-11-22T09:30:53.587Z,29.44
2018-11-22T09:31:10.266Z,28.886
2018-11-22T09:31:26.947Z,29.231
2018-11-22T09:31:43.632Z,28.851
2018-11-22T09:32:00.313Z,28.891
2018-11-22T09:32:16.986Z,29.033
2018-11-22T09:32:33.656Z,29.219
2018-11-22T09:32:50.304Z,29.194
2018-11-22T09:33:06.988Z,29.216
2018-11-22T09:33:23.631Z,29.16
2018-11-22T09:33:40.324Z,29.494
2018-11-22T09:33:56.996Z,30.071
2018-11-22T09:34:13.749Z,30.025
2018-11-22T09:34:30.438Z,29.346
2018-11-22T09:34:47.156Z,29.275
2018-11-22T09:35:03.960Z,27.622
2018-11-22T09:35:21.044Z,27.351
2018-11-22T09:35:38.370Z,29.291
2018-11-22T09:35:55.051Z,29.741
2018-11-22T09:36:11.714Z,30.507
2018-11-22T09:36:28.403Z,29.48
2018-11-22T09:36:45.051Z,31.436
2018-11-22T09:37:01.703Z,30.116
2018-11-22T09:37:18.397Z,28.59
2018-11-22T09:37:35.069Z,28.866
2018-11-22T09:37:51.795Z,29.154
2018-11-22T09:38:08.467Z,29.407
2018-11-22T09:38:25.146Z,29.409
2018-11-22T09:38:41.797Z,30.075
2018-11-22T09:38:58.455Z,29.415
2018-11-22T09:39:15.108Z,30.398
2018-11-22T09:39:31.787Z,29.699
2018-11-22T09:39:48.466Z,29.278
2018-11-22T09:40:05.153Z,29.799
2018-11-22T09:40:21.823Z,31.05
2018-11-22T09:40:38.491Z,30.055
2018-11-22T09:40:55.172Z,30.309
2018-11-22T09:41:11.843Z,31.911
2018-11-22T09:41:28.518Z,32.455
2018-11-22T09:41:45.181Z,32.374
2018-11-22T09:42:01.990Z,32.51
2018-11-22T09:42:19.387Z,33.122
2018-11-22T09:42:36.487Z,33.79
2018-11-22T09:42:53.163Z,32.5
2018-11-22T09:43:09.847Z,31.346
2018-11-22T09:43:26.506Z,33.163
2018-11-22T09:43:43.165Z,31.811
2018-11-22T09:43:59.853Z,32.507
2018-11-22T09:44:16.543Z,32.205
2018-11-22T09:44:33.203Z,31.366
2018-11-22T09:44:49.848Z,31.216
2018-11-22T09:45:06.535Z,31.308
2018-11-22T09:45:23.206Z,32.747
2018-11-22T09:45:39.853Z,31.251
2018-11-22T09:45:56.574Z,33.597
2018-11-22T09:46:13.253Z,31.257
2018-11-22T09:46:29.915Z,31.147
2018-11-22T09:46:46.592Z,31.294
2018-11-22T09:47:03.276Z,30.684
2018-11-22T09:47:19.937Z,30.63
2018-11-22T09:47:36.792Z,30.709
2018-11-22T09:47:53.449Z,32.457
2018-11-22T09:48:10.198Z,31.149
2018-11-22T09:48:26.957Z,30.495
2018-11-22T09:48:44.306Z,31.274
2018-11-22T09:49:01.379Z,30.819
2018-11-22T09:49:18.089Z,31.188
2018-11-22T09:49:34.799Z,30.545
2018-11-22T09:49:51.483Z,32.015
2018-11-22T09:50:08.190Z,30.561
2018-11-22T09:50:24.887Z,31.342
2018-11-22T09:50:41.675Z,31.12
2018-11-22T09:50:58.371Z,30.922
2018-11-22T09:51:15.046Z,32.948
2018-11-22T09:51:31.725Z,32.485
2018-11-22T09:51:48.373Z,33.045
2018-11-22T09:52:05.018Z,32.937
2018-11-22T09:52:21.663Z,31.839
2018-11-22T09:52:38.301Z,31.484
2018-11-22T09:52:54.935Z,30.806
2018-11-22T09:53:11.603Z,30.784
2018-11-22T09:53:28.282Z,31.051
2018-11-22T09:53:44.929Z,30.986
2018-11-22T09:54:01.646Z,30.742
2018-11-22T09:54:18.293Z,30.643
2018-11-22T09:54:34.943Z,31.289
2018-11-22T09:54:51.598Z,31.314
2018-11-22T09:55:08.241Z,32.05
2018-11-22T09:55:24.888Z,33.177
2018-11-22T09:55:41.517Z,32.845
2018-11-22T09:55:58.146Z,31.946
2018-11-22T09:56:14.835Z,31.016
2018-11-22T09:56:31.478Z,32.676
2018-11-22T09:56:48.168Z,32.969
2018-11-22T09:57:04.801Z,32.283
2018-11-22T09:57:21.475Z,30.992
2018-11-22T09:57:38.122Z,32.499
2018-11-22T09:57:54.762Z,31.654
2018-11-22T09:58:11.514Z,30.798
2018-11-22T09:58:28.155Z,30.286
2018-11-22T09:58:44.774Z,31.969
2018-11-22T09:59:01.665Z,31.47
2018-11-22T09:59:19.111Z,30.29
2018-11-22T09:59:36.111Z,30.179
2018-11-22T09:59:53.686Z,30.179
2018-11-22T10:00:10.353Z,30.602
2018-11-22T10:00:27.079Z,31.116
2018-11-22T10:00:43.756Z,33.636
2018-11-22T10:01:00.489Z,32.638
2018-11-22T10:01:17.166Z,33.152
2018-11-22T10:01:33.858Z,32.761
2018-11-22T10:01:50.553Z,29.354
2018-11-22T10:02:07.254Z,27.944
2018-11-22T10:02:24.139Z,28.565
2018-11-22T10:02:40.790Z,26.408
2018-11-22T10:02:57.765Z,25.625
2018-11-22T10:03:15.350Z,25.151
2018-11-22T10:03:32.845Z,24.673
2018-11-22T10:03:49.574Z,23.629
2018-11-22T10:04:06.223Z,23.593
2018-11-22T10:04:22.876Z,23.501
2018-11-22T10:04:39.876Z,23.093
2018-11-22T10:04:57.673Z,22.938
2018-11-22T10:05:17.325Z,22.938
2018-11-22T10:05:35.393Z,23.116
2018-11-22T10:05:52.604Z,24.765
2018-11-22T10:06:09.870Z,26.016
2018-11-22T10:06:26.583Z,23.486
2018-11-22T10:06:43.291Z,23.213
2018-11-22T10:06:59.954Z,23.644
2018-11-22T10:07:16.663Z,23.358
2018-11-22T10:07:33.359Z,22.978
2018-11-22T10:07:50.034Z,24.819
2018-11-22T10:08:06.724Z,24.98
2018-11-22T10:08:23.606Z,23.454
2018-11-22T10:08:40.868Z,24.775
2018-11-22T10:08:57.999Z,24.969
2018-11-22T10:09:15.041Z,25.021
2018-11-22T10:09:32.216Z,24.287
2018-11-22T10:09:48.878Z,24.62
2018-11-22T10:10:05.580Z,23.438
2018-11-22T10:10:22.243Z,24.315
2018-11-22T10:10:38.911Z,23.229
2018-11-22T10:10:55.576Z,24.48
2018-11-22T10:11:12.286Z,24.559
2018-11-22T10:11:28.950Z,26.638
2018-11-22T10:11:45.664Z,25.107
2018-11-22T10:12:02.351Z,26.435
2018-11-22T10:12:19.279Z,25.255
2018-11-22T10:12:36.753Z,24.185
2018-11-22T10:12:53.990Z,24.229
2018-11-22T10:13:10.647Z,23.89
2018-11-22T10:13:27.419Z,24.793
2018-11-22T10:13:44.118Z,25.75
2018-11-22T10:14:00.798Z,25.484
2018-11-22T10:14:17.495Z,25.584
2018-11-22T10:14:34.174Z,27.002
2018-11-22T10:14:50.872Z,25.978
2018-11-22T10:15:07.570Z,27.2
2018-11-22T10:15:24.241Z,26.704
2018-11-22T10:15:40.921Z,26.134
2018-11-22T10:15:57.574Z,26.193
2018-11-22T10:16:14.262Z,26.231
2018-11-22T10:16:30.910Z,27.995
2018-11-22T10:16:47.603Z,27.216
2018-11-22T10:17:04.648Z,30.704
2018-11-22T10:17:21.814Z,27.977
2018-11-22T10:17:38.507Z,27.416
2018-11-22T10:17:55.182Z,28.187
2018-11-22T10:18:11.873Z,27.366
2018-11-22T10:18:28.866Z,27.543
2018-11-22T10:18:46.453Z,26.848
2018-11-22T10:19:03.452Z,26.946
2018-11-22T10:19:20.209Z,26.92
2018-11-22T10:19:36.964Z,27.713
2018-11-22T10:19:53.695Z,29.367
2018-11-22T10:20:10.383Z,28.202
2018-11-22T10:20:27.065Z,28.322
2018-11-22T10:20:43.781Z,27.615
2018-11-22T10:21:00.494Z,27.256
2018-11-22T10:21:17.186Z,27.625
2018-11-22T10:21:33.868Z,27.445
2018-11-22T10:21:50.562Z,29.502
2018-11-22T10:22:07.243Z,30.138
2018-11-22T10:22:24.226Z,27.688
2018-11-22T10:22:41.683Z,27.607
2018-11-22T10:22:58.571Z,27.808
2018-11-22T10:23:15.248Z,27.816
2018-11-22T10:23:31.967Z,27.783
2018-11-22T10:23:49.138Z,28.377
2018-11-22T10:24:06.732Z,28.758
2018-11-22T10:24:24.321Z,28.532
2018-11-22T10:24:41.688Z,27.995
2018-11-22T10:24:58.410Z,28.599
2018-11-22T10:25:15.139Z,27.813
2018-11-22T10:25:31.827Z,28.351
2018-11-22T10:25:48.529Z,27.947
2018-11-22T10:26:05.292Z,27.621
2018-11-22T10:26:22.020Z,27.326
2018-11-22T10:26:38.746Z,28.359
2018-11-22T10:26:55.421Z,27.327
2018-11-22T10:27:12.179Z,27.412
2018-11-22T10:27:28.891Z,26.93
2018-11-22T10:27:45.588Z,27.646
2018-11-22T10:28:02.311Z,27.543
2018-11-22T10:28:19.010Z,27.588
2018-11-22T10:28:35.676Z,26.648
2018-11-22T10:28:52.363Z,26.962
2018-11-22T10:29:09.184Z,26.638
2018-11-22T10:29:26.569Z,26.424
2018-11-22T10:29:43.791Z,26.536
2018-11-22T10:30:00.620Z,26.312
2018-11-22T10:30:17.928Z,26.965
2018-11-22T10:30:35.012Z,26.919
2018-11-22T10:30:51.729Z,26.764
2018-11-22T10:31:08.438Z,26.597
2018-11-22T10:31:25.225Z,26.439
2018-11-22T10:31:42.370Z,26.395
2018-11-22T10:31:59.360Z,26.573
2018-11-22T10:32:16.026Z,27.646
2018-11-22T10:32:32.723Z,28.784
2018-11-22T10:32:49.396Z,27.487
2018-11-22T10:33:06.067Z,28.09
2018-11-22T10:33:22.797Z,27.71
2018-11-22T10:33:39.465Z,27.63
2018-11-22T10:33:56.147Z,26.937
2018-11-22T10:34:12.810Z,26.603
2018-11-22T10:34:29.545Z,26.727
2018-11-22T10:34:46.221Z,26.48
2018-11-22T10:35:03.141Z,26.425
2018-11-22T10:35:20.477Z,27.619
2018-11-22T10:35:37.734Z,27.309
2018-11-22T10:35:54.408Z,27.455
2018-11-22T10:36:11.111Z,26.786
2018-11-22T10:36:27.909Z,27.076
2018-11-22T10:36:44.580Z,27.019
2018-11-22T10:37:01.261Z,26.482
2018-11-22T10:37:17.964Z,26.435
2018-11-22T10:37:34.846Z,26.812
2018-11-22T10:37:52.296Z,26.955
2018-11-22T10:38:09.926Z,27.246
2018-11-22T10:38:27.391Z,28.376
2018-11-22T10:38:44.634Z,28.04
2018-11-22T10:39:01.568Z,27.549
2018-11-22T10:39:34.487Z,27.403
2018-11-22T10:39:51.192Z,29.135
2018-11-22T10:40:07.895Z,27.75
2018-11-22T10:40:24.630Z,27.74
2018-11-22T10:40:41.390Z,27.706
2018-11-22T10:40:58.269Z,27.539
2018-11-22T10:41:15.012Z,27.562
2018-11-22T10:41:31.704Z,27.664
2018-11-22T10:41:48.381Z,27.666
2018-11-22T10:42:05.150Z,27.722
2018-11-22T10:42:22.051Z,28.034
2018-11-22T10:42:39.205Z,28.057
2018-11-22T10:42:56.215Z,27.956
2018-11-22T10:43:12.941Z,28.034
2018-11-22T10:43:29.651Z,27.778
2018-11-22T10:43:46.304Z,28.158
2018-11-22T10:44:03.005Z,28.035
2018-11-22T10:44:19.657Z,28.068
2018-11-22T10:44:36.309Z,28.973
2018-11-22T10:44:52.985Z,28.358
2018-11-22T10:45:09.677Z,28.492
2018-11-22T10:45:26.352Z,28.55
2018-11-22T10:45:43.050Z,28.796
2018-11-22T10:45:59.726Z,28.216
2018-11-22T10:46:16.403Z,28.596
2018-11-22T10:46:33.059Z,28.92
2018-11-22T10:46:49.743Z,28.953
2018-11-22T10:47:06.417Z,28.742
2018-11-22T10:47:23.075Z,28.296
2018-11-22T10:47:39.797Z,28.07
2018-11-22T10:47:56.466Z,28.247
2018-11-22T10:48:13.107Z,28.357
2018-11-22T10:48:29.817Z,28.033
2018-11-22T10:48:46.602Z,28.177
2018-11-22T10:49:03.307Z,28.354
2018-11-22T10:49:20.078Z,28.197
2018-11-22T10:49:36.817Z,28.221
2018-11-22T10:49:53.524Z,28.276
2018-11-22T10:50:10.244Z,28.308
2018-11-22T10:50:26.943Z,28.195
2018-11-22T10:50:43.721Z,28.129
2018-11-22T10:51:00.437Z,28.272
2018-11-22T10:51:17.187Z,28.215
2018-11-22T10:51:33.860Z,28.237
2018-11-22T10:51:50.587Z,28.182
2018-11-22T10:52:07.287Z,28.182
2018-11-22T10:52:23.978Z,28.127
2018-11-22T10:52:40.795Z,28.115
2018-11-22T10:52:57.493Z,28.182
2018-11-22T10:53:14.182Z,28.192
2018-11-22T10:53:30.879Z,28.18
2018-11-22T10:53:47.598Z,28.18
2018-11-22T10:54:04.340Z,28.258
2018-11-22T10:54:21.113Z,28.303
2018-11-22T10:54:37.892Z,28.201
2018-11-22T10:54:54.635Z,28.213
2018-11-22T10:55:11.405Z,28.136
2018-11-22T10:55:28.110Z,28.136
2018-11-22T10:55:44.854Z,28.169
2018-11-22T10:56:01.776Z,28.136
2018-11-22T10:56:18.525Z,28.136
2018-11-22T10:56:35.228Z,28.104
2018-11-22T10:56:51.930Z,28.092
2018-11-22T10:57:08.704Z,28.135
2018-11-22T10:57:25.460Z,28.124
2018-11-22T10:57:42.225Z,28.19
2018-11-22T10:57:58.951Z,28.135
2018-11-22T10:58:15.624Z,28.167
2018-11-22T10:58:32.306Z,28.167
2018-11-22T10:58:48.966Z,28.177
2018-11-22T10:59:05.667Z,28.21
2018-11-22T10:59:22.359Z,28.145
2018-11-22T10:59:39.035Z,28.134
2018-11-22T10:59:56.613Z,28.156
2018-11-22T11:00:13.307Z,28.135
2018-11-22T11:00:29.990Z,28.144
2018-11-22T11:00:46.694Z,28.176
2018-11-22T11:01:03.431Z,28.198
2018-11-22T11:01:20.117Z,28.199
2018-11-22T11:01:36.813Z,28.231
2018-11-22T11:01:53.537Z,28.263
2018-11-22T11:02:10.278Z,28.229
2018-11-22T11:02:27.201Z,28.251
2018-11-22T11:02:43.906Z,28.229
2018-11-22T11:03:00.590Z,28.219
2018-11-22T11:03:17.259Z,28.251
2018-11-22T11:03:33.940Z,28.262
2018-11-22T11:03:50.703Z,28.251
2018-11-22T11:04:07.429Z,28.261
2018-11-22T11:04:24.259Z,28.294
2018-11-22T11:04:40.922Z,28.294
2018-11-22T11:04:57.570Z,28.271
2018-11-22T11:05:14.247Z,28.249
2018-11-22T11:05:30.971Z,28.271
2018-11-22T11:05:47.741Z,28.249
2018-11-22T11:06:04.440Z,28.283
2018-11-22T11:06:21.136Z,28.294
2018-11-22T11:06:37.851Z,28.271
2018-11-22T11:06:54.642Z,28.283
2018-11-22T11:07:11.395Z,28.326
2018-11-22T11:07:28.112Z,28.336
2018-11-22T11:07:44.813Z,28.313
2018-11-22T11:08:01.487Z,28.314
2018-11-22T11:08:18.164Z,28.313
2018-11-22T11:08:34.829Z,28.291
2018-11-22T11:08:51.546Z,28.324
2018-11-22T11:09:08.303Z,28.391
2018-11-22T11:09:24.959Z,28.355
2018-11-22T11:09:41.758Z,28.355
2018-11-22T11:09:58.415Z,28.355
2018-11-22T11:10:15.084Z,28.388
2018-11-22T11:10:31.749Z,28.419
2018-11-22T11:10:48.407Z,28.441
2018-11-22T11:11:05.121Z,28.441
2018-11-22T11:11:21.786Z,28.484
2018-11-22T11:11:38.485Z,28.484
2018-11-22T11:11:55.128Z,28.473
2018-11-22T11:12:11.803Z,28.494
2018-11-22T11:12:28.494Z,28.495
2018-11-22T11:12:45.157Z,28.517
2018-11-22T11:13:01.864Z,28.517
2018-11-22T11:13:18.550Z,28.515
2018-11-22T11:13:35.224Z,28.56
2018-11-22T11:13:51.911Z,28.58
2018-11-22T11:14:08.601Z,28.602
2018-11-22T11:14:25.323Z,28.622
2018-11-22T11:14:42.020Z,28.622
2018-11-22T11:14:58.680Z,28.634
2018-11-22T11:15:15.336Z,28.656
2018-11-22T11:15:32.003Z,28.655
2018-11-22T11:15:48.674Z,28.678
2018-11-22T11:16:05.360Z,28.666
2018-11-22T11:16:22.076Z,28.688
2018-11-22T11:16:38.742Z,28.665
2018-11-22T11:16:55.460Z,28.698
2018-11-22T11:17:12.157Z,28.675
2018-11-22T11:17:28.825Z,28.664
2018-11-22T11:17:45.497Z,28.687
2018-11-22T11:18:02.276Z,28.729
2018-11-22T11:18:18.938Z,28.707
2018-11-22T11:18:35.613Z,28.751
2018-11-22T11:18:52.275Z,28.771
2018-11-22T11:19:09.004Z,28.761
2018-11-22T11:19:25.748Z,28.761
2018-11-22T11:19:42.466Z,28.815
2018-11-22T11:19:59.236Z,28.793
2018-11-22T11:20:15.913Z,28.826
2018-11-22T11:20:32.614Z,28.826
2018-11-22T11:20:49.316Z,28.881
2018-11-22T11:21:24.066Z,28.891
2018-11-22T11:21:40.847Z,28.891
2018-11-22T11:21:57.547Z,28.867
2018-11-22T11:22:14.265Z,28.856
2018-11-22T11:22:31.032Z,28.847
2018-11-22T11:22:47.753Z,28.88
2018-11-22T11:23:04.446Z,28.879
2018-11-22T11:23:21.139Z,28.856
2018-11-22T11:23:37.961Z,28.889
2018-11-22T11:23:54.984Z,28.932
2018-11-22T11:24:11.655Z,28.953
2018-11-22T11:24:30.744Z,28.997
2018-11-22T11:24:49.638Z,28.995
2018-11-22T11:25:06.339Z,29.017
2018-11-22T11:25:23.044Z,29.038
2018-11-22T11:25:39.693Z,29.06
2018-11-22T11:25:56.406Z,29.07
2018-11-22T11:26:13.122Z,29.082
2018-11-22T11:26:29.826Z,29.081
2018-11-22T11:26:46.487Z,29.103
2018-11-22T11:27:03.625Z,29.124
2018-11-22T11:27:20.289Z,29.156
2018-11-22T11:27:37.135Z,29.18
2018-11-22T11:27:53.803Z,29.124
2018-11-22T11:28:10.453Z,29.136
2018-11-22T11:28:27.150Z,29.124
2018-11-22T11:28:43.811Z,29.167
2018-11-22T11:29:00.517Z,29.155
2018-11-22T11:29:17.188Z,29.166
2018-11-22T11:29:33.861Z,29.177
2018-11-22T11:29:50.497Z,29.198
2018-11-22T11:30:07.181Z,29.209
2018-11-22T11:30:23.878Z,29.208
2018-11-22T11:30:40.542Z,29.219
2018-11-22T11:30:57.219Z,29.229
2018-11-22T11:31:13.895Z,29.251
2018-11-22T11:31:30.569Z,29.251
2018-11-22T11:31:47.256Z,29.271
2018-11-22T11:32:03.976Z,29.272
2018-11-22T11:32:20.703Z,29.283
2018-11-22T11:32:37.375Z,29.315
2018-11-22T11:32:54.038Z,29.315
2018-11-22T11:33:10.744Z,29.325
2018-11-22T11:33:27.412Z,29.347
2018-11-22T11:33:44.092Z,29.358
2018-11-22T11:34:00.923Z,29.369
2018-11-22T11:34:17.576Z,29.391
2018-11-22T11:34:34.242Z,29.39
2018-11-22T11:34:50.912Z,29.39
2018-11-22T11:35:07.602Z,29.39
2018-11-22T11:35:24.295Z,29.39
2018-11-22T11:35:40.981Z,29.4
2018-11-22T11:35:57.649Z,29.41
2018-11-22T11:36:18.303Z,29.432
2018-11-22T11:36:34.987Z,29.452
2018-11-22T11:36:51.651Z,29.475
2018-11-22T11:37:08.330Z,29.496
2018-11-22T11:37:25.011Z,29.518
2018-11-22T11:37:41.701Z,29.518
2018-11-22T11:37:58.430Z,29.527
2018-11-22T11:38:15.145Z,29.527
2018-11-22T11:38:31.834Z,29.55
2018-11-22T11:38:48.539Z,29.549
2018-11-22T11:39:05.235Z,29.571
2018-11-22T11:39:21.968Z,29.57
2018-11-22T11:39:38.650Z,29.581
2018-11-22T11:40:01.063Z,29.58
2018-11-22T11:40:17.792Z,29.613
2018-11-22T11:40:34.468Z,29.612
2018-11-22T11:40:51.125Z,29.635
2018-11-22T11:41:07.828Z,29.635
2018-11-22T11:41:24.514Z,29.634
2018-11-22T11:41:41.188Z,29.646
2018-11-22T11:41:57.820Z,29.645
2018-11-22T11:42:14.528Z,29.655
2018-11-22T11:42:31.239Z,29.666
2018-11-22T11:42:47.906Z,29.676
2018-11-22T11:43:04.589Z,29.687
2018-11-22T11:43:21.246Z,29.72
2018-11-22T11:43:37.913Z,29.729
2018-11-22T11:43:54.602Z,29.74
2018-11-22T11:44:11.250Z,29.74
2018-11-22T11:44:27.926Z,29.752
2018-11-22T11:44:44.593Z,29.751
2018-11-22T11:45:01.248Z,29.762
2018-11-22T11:45:17.889Z,29.762
2018-11-22T11:45:34.576Z,29.762
2018-11-22T11:45:51.233Z,29.793
2018-11-22T11:46:07.900Z,29.782
2018-11-22T11:46:24.556Z,29.805
2018-11-22T11:46:41.252Z,29.805
2018-11-22T11:46:57.904Z,29.815
2018-11-22T11:47:14.642Z,29.815
2018-11-22T11:47:31.297Z,29.825
2018-11-22T11:47:47.978Z,29.836
2018-11-22T11:48:04.635Z,29.836
2018-11-22T11:48:21.368Z,29.836
2018-11-22T11:48:38.035Z,29.846
2018-11-22T11:48:54.673Z,29.857
2018-11-22T11:49:11.371Z,29.891
2018-11-22T11:49:28.048Z,29.867
2018-11-22T11:49:44.696Z,29.889
2018-11-22T11:50:01.331Z,29.878
2018-11-22T11:50:18.607Z,29.889
2018-11-22T11:50:35.401Z,29.899
2018-11-22T11:50:52.050Z,29.909
2018-11-22T11:51:08.744Z,29.921
2018-11-22T11:51:25.464Z,29.909
2018-11-22T11:51:42.244Z,29.909
2018-11-22T11:51:58.994Z,29.92
2018-11-22T11:52:15.640Z,29.953
2018-11-22T11:52:32.308Z,29.941
2018-11-22T11:52:49.006Z,29.919
2018-11-22T11:53:05.653Z,29.919
2018-11-22T11:53:42.037Z,29.931
2018-11-22T11:53:47.749Z,29.963
2018-11-22T11:54:04.487Z,29.961
2018-11-22T11:54:21.227Z,29.962
2018-11-22T11:54:37.921Z,29.95
2018-11-22T11:54:54.713Z,29.961
2018-11-22T11:55:11.380Z,29.961
2018-11-22T11:55:28.041Z,29.961
2018-11-22T11:55:44.707Z,29.972
2018-11-22T11:56:01.360Z,29.993
2018-11-22T11:56:18.048Z,29.993
2018-11-22T11:56:34.731Z,30.005
2018-11-22T11:56:51.399Z,30.004
2018-11-22T11:57:08.093Z,30.004
2018-11-22T11:57:24.774Z,30.015
2018-11-22T11:57:41.442Z,30.003
2018-11-22T11:57:58.159Z,30.014
2018-11-22T11:58:14.795Z,30.014
2018-11-22T11:58:31.456Z,30.015
2018-11-22T11:58:48.137Z,30.015
2018-11-22T11:59:04.847Z,30.025
2018-11-22T11:59:21.497Z,30.035
2018-11-22T11:59:38.212Z,30.036
2018-11-22T11:59:54.869Z,30.025
2018-11-22T12:00:11.714Z,30.035
2018-11-22T12:00:28.410Z,30.058
2018-11-22T12:00:45.137Z,30.057
2018-11-22T12:01:01.859Z,30.047
2018-11-22T12:01:18.545Z,30.057
2018-11-22T12:01:35.279Z,30.068
2018-11-22T12:01:51.995Z,30.047
2018-11-22T12:02:08.632Z,30.047
2018-11-22T12:02:31.657Z,30.058
2018-11-22T12:02:48.355Z,30.068
2018-11-22T12:03:05.025Z,30.057
2018-11-22T12:03:21.705Z,30.202
2018-11-22T12:03:38.388Z,32.963
2018-11-22T12:03:55.043Z,30.538
2018-11-22T12:04:11.708Z,30.539
2018-11-22T12:04:28.378Z,30.651
2018-11-22T12:04:45.082Z,30.854
2018-11-22T12:05:01.757Z,30.976
2018-11-22T12:05:18.406Z,31.532
2018-11-22T12:05:35.085Z,31.368
2018-11-22T12:05:51.775Z,31.058
2018-11-22T12:06:08.481Z,30.691
2018-11-22T12:06:25.137Z,30.681
2018-11-22T12:06:41.819Z,31.104
2018-11-22T12:06:58.476Z,31.137
2018-11-22T12:07:15.170Z,31.939
2018-11-22T12:07:31.897Z,31.327
2018-11-22T12:07:48.557Z,33.396
2018-11-22T12:08:05.223Z,34.21
2018-11-22T12:08:21.917Z,35.112
2018-11-22T12:08:38.603Z,34.569
2018-11-22T12:08:55.343Z,33.158
2018-11-22T12:09:12.021Z,32.334
2018-11-22T12:09:28.678Z,31.645
2018-11-22T12:09:45.363Z,31.545
2018-11-22T12:10:02.140Z,33.859
2018-11-22T12:10:18.843Z,33.681
2018-11-22T12:10:35.498Z,33.759
2018-11-22T12:10:52.196Z,32.357
2018-11-22T12:11:08.845Z,31.924
2018-11-22T12:11:25.540Z,32.157
2018-11-22T12:11:42.264Z,31.7
2018-11-22T12:11:58.963Z,32.446
2018-11-22T12:12:15.655Z,32.357
2018-11-22T12:12:32.367Z,32.857
2018-11-22T12:12:49.027Z,32.547
2018-11-22T12:13:05.702Z,32.503
2018-11-22T12:13:22.367Z,31.969
2018-11-22T12:13:39.053Z,31.946
2018-11-22T12:13:55.731Z,32.101
2018-11-22T12:14:12.388Z,32.747
2018-11-22T12:14:29.049Z,31.801
2018-11-22T12:14:45.800Z,31.713
2018-11-22T12:15:02.558Z,31.557
2018-11-22T12:15:19.217Z,31.667
2018-11-22T12:15:35.880Z,31.277
2018-11-22T12:15:52.551Z,31.021
2018-11-22T12:16:09.535Z,31.289
2018-11-22T12:16:26.389Z,31.855
2018-11-22T12:16:43.085Z,31.689
2018-11-22T12:16:59.743Z,31.601
2018-11-22T12:17:16.437Z,31.656
2018-11-22T12:17:33.152Z,31.601
2018-11-22T12:17:49.857Z,31.645
2018-11-22T12:18:07.427Z,31.768
2018-11-22T12:18:24.088Z,31.635
2018-11-22T12:18:40.775Z,31.624
2018-11-22T12:18:57.467Z,31.936
2018-11-22T12:19:14.170Z,33.727
2018-11-22T12:19:30.887Z,32.247
2018-11-22T12:19:47.626Z,31.893
2018-11-22T12:20:04.332Z,32.271
2018-11-22T12:20:21.053Z,31.682
2018-11-22T12:20:37.733Z,31.726
2018-11-22T12:20:54.454Z,32.116
2018-11-22T12:21:11.119Z,33.007
2018-11-22T12:21:27.835Z,33.308
2018-11-22T12:21:44.529Z,34.179
2018-11-22T12:22:01.275Z,33.711
2018-11-22T12:22:17.951Z,33.011
2018-11-22T12:22:34.607Z,34.089
2018-11-22T12:22:51.412Z,33.489
2018-11-22T12:23:08.072Z,34.112
2018-11-22T12:23:24.771Z,35.215
2018-11-22T12:23:41.469Z,33.369
2018-11-22T12:23:58.154Z,32.823
2018-11-22T12:24:14.905Z,34.304
2018-11-22T12:24:31.602Z,35.069
2018-11-22T12:24:48.255Z,33.857
2018-11-22T12:25:04.953Z,36.021
2018-11-22T12:25:21.646Z,35.393
2018-11-22T12:25:38.334Z,34.626
2018-11-22T12:25:55.027Z,33.381
2018-11-22T12:26:11.729Z,32.814
2018-11-22T12:26:28.401Z,33.372
2018-11-22T12:26:45.112Z,32.982
2018-11-22T12:27:01.859Z,32.615
2018-11-22T12:27:18.565Z,33.328
2018-11-22T12:27:35.237Z,32.794
2018-11-22T12:27:51.936Z,34.774
2018-11-22T12:28:08.656Z,33.262
2018-11-22T12:28:25.363Z,32.816
2018-11-22T12:28:42.069Z,33.896
2018-11-22T12:28:58.759Z,33.94
2018-11-22T12:29:15.446Z,33.351
2018-11-22T12:29:32.164Z,32.862
2018-11-22T12:29:48.864Z,32.795
2018-11-22T12:30:05.544Z,33.775
2018-11-22T12:30:22.266Z,33.163
2018-11-22T12:30:38.962Z,32.985